sensor_id;sensor_type;location;lat;lon;timestamp;temperature;humidity
83102;SHT31;72973;51.784;4.660;2024-02-14T00:00:48;10.52;84.35
83102;SHT31;72973;51.784;4.660;2024-02-14T00:03:15;10.52;84.43
83102;SHT31;72973;51.784;4.660;2024-02-14T00:05:41;10.60;84.15
83102;SHT31;72973;51.784;4.660;2024-02-14T00:08:07;10.61;84.11
83102;SHT31;72973;51.784;4.660;2024-02-14T00:10:34;10.59;84.35
83102;SHT31;72973;51.784;4.660;2024-02-14T00:13:00;10.59;84.07
83102;SHT31;72973;51.784;4.660;2024-02-14T00:15:26;10.57;84.31
83102;SHT31;72973;51.784;4.660;2024-02-14T00:17:53;10.63;84.17
83102;SHT31;72973;51.784;4.660;2024-02-14T00:20:19;10.76;84.15
83102;SHT31;72973;51.784;4.660;2024-02-14T00:22:46;10.81;83.86
83102;SHT31;72973;51.784;4.660;2024-02-14T00:25:13;10.80;83.87
83102;SHT31;72973;51.784;4.660;2024-02-14T00:27:39;10.84;83.72
83102;SHT31;72973;51.784;4.660;2024-02-14T00:30:07;10.85;83.81
83102;SHT31;72973;51.784;4.660;2024-02-14T00:32:33;10.85;83.69
83102;SHT31;72973;51.784;4.660;2024-02-14T00:34:59;10.90;83.82
83102;SHT31;72973;51.784;4.660;2024-02-14T00:37:26;10.90;83.76
83102;SHT31;72973;51.784;4.660;2024-02-14T00:39:53;10.83;83.90
83102;SHT31;72973;51.784;4.660;2024-02-14T00:42:20;10.96;83.71
83102;SHT31;72973;51.784;4.660;2024-02-14T00:44:46;10.98;83.88
83102;SHT31;72973;51.784;4.660;2024-02-14T00:47:12;10.98;83.92
83102;SHT31;72973;51.784;4.660;2024-02-14T00:49:39;10.97;83.88
83102;SHT31;72973;51.784;4.660;2024-02-14T00:52:05;11.00;83.75
83102;SHT31;72973;51.784;4.660;2024-02-14T00:54:32;10.94;83.93
83102;SHT31;72973;51.784;4.660;2024-02-14T00:56:59;10.93;83.99
83102;SHT31;72973;51.784;4.660;2024-02-14T00:59:25;10.91;84.03
83102;SHT31;72973;51.784;4.660;2024-02-14T01:01:52;10.94;84.08
83102;SHT31;72973;51.784;4.660;2024-02-14T01:04:18;10.98;83.93
83102;SHT31;72973;51.784;4.660;2024-02-14T01:06:44;11.00;83.86
83102;SHT31;72973;51.784;4.660;2024-02-14T01:09:11;11.04;83.74
83102;SHT31;72973;51.784;4.660;2024-02-14T01:11:37;11.07;83.72
83102;SHT31;72973;51.784;4.660;2024-02-14T01:14:04;11.04;83.70
83102;SHT31;72973;51.784;4.660;2024-02-14T01:16:31;11.03;84.04
83102;SHT31;72973;51.784;4.660;2024-02-14T01:18:57;11.03;84.19
83102;SHT31;72973;51.784;4.660;2024-02-14T01:21:23;11.03;84.23
83102;SHT31;72973;51.784;4.660;2024-02-14T01:23:50;11.04;84.09
83102;SHT31;72973;51.784;4.660;2024-02-14T01:26:18;11.03;83.99
83102;SHT31;72973;51.784;4.660;2024-02-14T01:28:44;10.97;84.15
83102;SHT31;72973;51.784;4.660;2024-02-14T01:31:11;11.03;84.13
83102;SHT31;72973;51.784;4.660;2024-02-14T01:33:38;11.04;83.94
83102;SHT31;72973;51.784;4.660;2024-02-14T01:36:04;10.98;84.22
83102;SHT31;72973;51.784;4.660;2024-02-14T01:38:31;10.98;84.14
83102;SHT31;72973;51.784;4.660;2024-02-14T01:41:02;10.98;84.22
83102;SHT31;72973;51.784;4.660;2024-02-14T01:43:29;10.96;84.24
83102;SHT31;72973;51.784;4.660;2024-02-14T01:46:05;10.96;84.49
83102;SHT31;72973;51.784;4.660;2024-02-14T01:48:34;10.91;84.48
83102;SHT31;72973;51.784;4.660;2024-02-14T01:51:02;10.96;84.62
83102;SHT31;72973;51.784;4.660;2024-02-14T01:53:30;11.00;84.30
83102;SHT31;72973;51.784;4.660;2024-02-14T01:55:58;11.01;84.40
83102;SHT31;72973;51.784;4.660;2024-02-14T01:58:29;11.00;84.65
83102;SHT31;72973;51.784;4.660;2024-02-14T02:00:55;10.91;85.01
83102;SHT31;72973;51.784;4.660;2024-02-14T02:03:24;10.93;85.33
83102;SHT31;72973;51.784;4.660;2024-02-14T02:05:52;10.98;85.29
83102;SHT31;72973;51.784;4.660;2024-02-14T02:08:18;10.88;85.51
83102;SHT31;72973;51.784;4.660;2024-02-14T02:10:45;10.90;85.63
83102;SHT31;72973;51.784;4.660;2024-02-14T02:13:12;10.97;85.34
83102;SHT31;72973;51.784;4.660;2024-02-14T02:15:38;10.90;85.63
83102;SHT31;72973;51.784;4.660;2024-02-14T02:18:05;10.96;85.41
83102;SHT31;72973;51.784;4.660;2024-02-14T02:20:32;10.98;85.24
83102;SHT31;72973;51.784;4.660;2024-02-14T02:22:59;10.96;85.14
83102;SHT31;72973;51.784;4.660;2024-02-14T02:25:25;10.97;85.08
83102;SHT31;72973;51.784;4.660;2024-02-14T02:27:53;11.03;85.10
83102;SHT31;72973;51.784;4.660;2024-02-14T02:30:23;11.03;85.05
83102;SHT31;72973;51.784;4.660;2024-02-14T02:32:50;11.07;84.97
83102;SHT31;72973;51.784;4.660;2024-02-14T02:35:17;11.11;85.09
83102;SHT31;72973;51.784;4.660;2024-02-14T02:37:47;11.18;84.79
83102;SHT31;72973;51.784;4.660;2024-02-14T02:40:17;11.24;84.75
83102;SHT31;72973;51.784;4.660;2024-02-14T02:42:43;11.17;84.82
83102;SHT31;72973;51.784;4.660;2024-02-14T02:45:11;11.19;84.82
83102;SHT31;72973;51.784;4.660;2024-02-14T02:47:37;11.18;84.89
83102;SHT31;72973;51.784;4.660;2024-02-14T02:50:04;11.15;84.94
83102;SHT31;72973;51.784;4.660;2024-02-14T02:52:30;11.17;85.04
83102;SHT31;72973;51.784;4.660;2024-02-14T02:54:57;11.24;85.04
83102;SHT31;72973;51.784;4.660;2024-02-14T02:57:23;11.22;84.78
83102;SHT31;72973;51.784;4.660;2024-02-14T02:59:53;11.27;84.68
83102;SHT31;72973;51.784;4.660;2024-02-14T03:02:20;11.29;84.57
83102;SHT31;72973;51.784;4.660;2024-02-14T03:04:46;11.28;84.72
83102;SHT31;72973;51.784;4.660;2024-02-14T03:07:13;11.31;84.67
83102;SHT31;72973;51.784;4.660;2024-02-14T03:09:39;11.31;84.84
83102;SHT31;72973;51.784;4.660;2024-02-14T03:12:07;11.39;84.41
83102;SHT31;72973;51.784;4.660;2024-02-14T03:14:35;11.36;84.56
83102;SHT31;72973;51.784;4.660;2024-02-14T03:17:03;11.32;84.64
83102;SHT31;72973;51.784;4.660;2024-02-14T03:19:29;11.35;84.68
83102;SHT31;72973;51.784;4.660;2024-02-14T03:21:56;11.38;84.49
83102;SHT31;72973;51.784;4.660;2024-02-14T03:24:23;11.45;84.50
83102;SHT31;72973;51.784;4.660;2024-02-14T03:26:52;11.48;84.21
83102;SHT31;72973;51.784;4.660;2024-02-14T03:29:20;11.48;84.20
83102;SHT31;72973;51.784;4.660;2024-02-14T03:31:47;11.43;84.32
83102;SHT31;72973;51.784;4.660;2024-02-14T03:34:14;11.52;84.15
83102;SHT31;72973;51.784;4.660;2024-02-14T03:36:40;11.58;83.96
83102;SHT31;72973;51.784;4.660;2024-02-14T03:39:07;11.58;83.90
83102;SHT31;72973;51.784;4.660;2024-02-14T03:41:34;11.65;83.73
83102;SHT31;72973;51.784;4.660;2024-02-14T03:44:01;11.62;83.82
83102;SHT31;72973;51.784;4.660;2024-02-14T03:46:29;11.66;83.74
83102;SHT31;72973;51.784;4.660;2024-02-14T03:48:56;11.66;83.66
83102;SHT31;72973;51.784;4.660;2024-02-14T03:51:25;11.66;83.61
83102;SHT31;72973;51.784;4.660;2024-02-14T03:53:52;11.66;83.83
83102;SHT31;72973;51.784;4.660;2024-02-14T03:56:18;11.72;83.78
83102;SHT31;72973;51.784;4.660;2024-02-14T03:58:45;11.70;83.67
83102;SHT31;72973;51.784;4.660;2024-02-14T04:01:14;11.72;83.68
83102;SHT31;72973;51.784;4.660;2024-02-14T04:03:40;11.76;83.68
83102;SHT31;72973;51.784;4.660;2024-02-14T04:06:07;11.76;83.70
83102;SHT31;72973;51.784;4.660;2024-02-14T04:08:33;11.75;83.68
83102;SHT31;72973;51.784;4.660;2024-02-14T04:11:01;11.77;83.67
83102;SHT31;72973;51.784;4.660;2024-02-14T04:13:27;11.76;83.68
83102;SHT31;72973;51.784;4.660;2024-02-14T04:15:54;11.79;83.77
83102;SHT31;72973;51.784;4.660;2024-02-14T04:18:20;11.79;84.06
83102;SHT31;72973;51.784;4.660;2024-02-14T04:20:46;11.79;83.87
83102;SHT31;72973;51.784;4.660;2024-02-14T04:23:13;11.80;84.17
83102;SHT31;72973;51.784;4.660;2024-02-14T04:25:39;11.73;84.46
83102;SHT31;72973;51.784;4.660;2024-02-14T04:28:06;11.72;84.68
83102;SHT31;72973;51.784;4.660;2024-02-14T04:30:32;11.73;84.70
83102;SHT31;72973;51.784;4.660;2024-02-14T04:32:59;11.69;84.84
83102;SHT31;72973;51.784;4.660;2024-02-14T04:35:26;11.76;84.84
83102;SHT31;72973;51.784;4.660;2024-02-14T04:37:53;11.77;84.64
83102;SHT31;72973;51.784;4.660;2024-02-14T04:40:19;11.83;84.55
83102;SHT31;72973;51.784;4.660;2024-02-14T04:42:46;11.84;84.75
83102;SHT31;72973;51.784;4.660;2024-02-14T04:45:13;11.83;84.92
83102;SHT31;72973;51.784;4.660;2024-02-14T04:47:39;11.75;85.58
83102;SHT31;72973;51.784;4.660;2024-02-14T04:50:06;11.75;85.90
83102;SHT31;72973;51.784;4.660;2024-02-14T04:52:32;11.66;86.30
83102;SHT31;72973;51.784;4.660;2024-02-14T04:54:58;11.58;86.47
83102;SHT31;72973;51.784;4.660;2024-02-14T04:57:25;11.69;86.35
83102;SHT31;72973;51.784;4.660;2024-02-14T04:59:51;11.76;86.22
83102;SHT31;72973;51.784;4.660;2024-02-14T05:02:18;11.75;86.18
83102;SHT31;72973;51.784;4.660;2024-02-14T05:04:44;11.79;86.15
83102;SHT31;72973;51.784;4.660;2024-02-14T05:07:10;11.72;86.24
83102;SHT31;72973;51.784;4.660;2024-02-14T05:09:37;11.66;86.42
83102;SHT31;72973;51.784;4.660;2024-02-14T05:12:03;11.72;86.57
83102;SHT31;72973;51.784;4.660;2024-02-14T05:14:30;11.62;86.57
83102;SHT31;72973;51.784;4.660;2024-02-14T05:16:57;11.59;86.86
83102;SHT31;72973;51.784;4.660;2024-02-14T05:19:23;11.51;87.14
83102;SHT31;72973;51.784;4.660;2024-02-14T05:21:50;11.56;87.16
83102;SHT31;72973;51.784;4.660;2024-02-14T05:24:16;11.56;87.06
83102;SHT31;72973;51.784;4.660;2024-02-14T05:26:43;11.54;87.09
83102;SHT31;72973;51.784;4.660;2024-02-14T05:29:09;11.62;86.71
83102;SHT31;72973;51.784;4.660;2024-02-14T05:31:43;11.59;86.75
83102;SHT31;72973;51.784;4.660;2024-02-14T05:34:10;11.63;86.74
83102;SHT31;72973;51.784;4.660;2024-02-14T05:36:36;11.66;86.66
83102;SHT31;72973;51.784;4.660;2024-02-14T05:39:04;11.63;86.65
83102;SHT31;72973;51.784;4.660;2024-02-14T05:41:31;11.69;86.58
83102;SHT31;72973;51.784;4.660;2024-02-14T05:43:59;11.63;86.62
83102;SHT31;72973;51.784;4.660;2024-02-14T05:46:25;11.67;86.55
83102;SHT31;72973;51.784;4.660;2024-02-14T05:48:51;11.72;86.50
83102;SHT31;72973;51.784;4.660;2024-02-14T05:51:24;11.67;86.73
83102;SHT31;72973;51.784;4.660;2024-02-14T05:53:50;11.61;86.96
83102;SHT31;72973;51.784;4.660;2024-02-14T05:56:16;11.61;87.09
83102;SHT31;72973;51.784;4.660;2024-02-14T05:58:43;11.66;86.90
83102;SHT31;72973;51.784;4.660;2024-02-14T06:01:09;11.70;86.75
83102;SHT31;72973;51.784;4.660;2024-02-14T06:03:36;11.76;86.67
83102;SHT31;72973;51.784;4.660;2024-02-14T06:06:02;11.75;86.66
83102;SHT31;72973;51.784;4.660;2024-02-14T06:08:28;11.73;86.45
83102;SHT31;72973;51.784;4.660;2024-02-14T06:10:55;11.82;86.42
83102;SHT31;72973;51.784;4.660;2024-02-14T06:13:21;11.87;86.21
83102;SHT31;72973;51.784;4.660;2024-02-14T06:15:48;11.83;86.20
83102;SHT31;72973;51.784;4.660;2024-02-14T06:18:14;11.84;86.24
83102;SHT31;72973;51.784;4.660;2024-02-14T06:20:42;11.91;86.10
83102;SHT31;72973;51.784;4.660;2024-02-14T06:23:08;11.91;85.99
83102;SHT31;72973;51.784;4.660;2024-02-14T06:25:35;12.00;86.02
83102;SHT31;72973;51.784;4.660;2024-02-14T06:28:01;12.05;85.71
83102;SHT31;72973;51.784;4.660;2024-02-14T06:30:28;12.01;85.58
83102;SHT31;72973;51.784;4.660;2024-02-14T06:32:54;12.04;85.64
83102;SHT31;72973;51.784;4.660;2024-02-14T06:35:22;12.01;85.85
83102;SHT31;72973;51.784;4.660;2024-02-14T06:37:48;12.16;85.49
83102;SHT31;72973;51.784;4.660;2024-02-14T06:40:15;12.10;85.50
83102;SHT31;72973;51.784;4.660;2024-02-14T06:42:42;12.03;85.71
83102;SHT31;72973;51.784;4.660;2024-02-14T06:45:08;12.01;85.98
83102;SHT31;72973;51.784;4.660;2024-02-14T06:47:35;12.05;86.01
83102;SHT31;72973;51.784;4.660;2024-02-14T06:50:01;12.01;86.03
83102;SHT31;72973;51.784;4.660;2024-02-14T06:52:27;11.94;86.49
83102;SHT31;72973;51.784;4.660;2024-02-14T06:54:54;11.95;86.55
83102;SHT31;72973;51.784;4.660;2024-02-14T06:57:20;11.97;86.59
83102;SHT31;72973;51.784;4.660;2024-02-14T06:59:46;11.93;86.61
83102;SHT31;72973;51.784;4.660;2024-02-14T07:02:13;11.90;86.92
83102;SHT31;72973;51.784;4.660;2024-02-14T07:04:40;11.93;86.94
83102;SHT31;72973;51.784;4.660;2024-02-14T07:07:06;11.91;86.95
83102;SHT31;72973;51.784;4.660;2024-02-14T07:09:33;11.94;86.87
83102;SHT31;72973;51.784;4.660;2024-02-14T07:12:01;11.97;86.87
83102;SHT31;72973;51.784;4.660;2024-02-14T07:14:28;11.90;87.08
83102;SHT31;72973;51.784;4.660;2024-02-14T07:16:54;11.94;87.13
83102;SHT31;72973;51.784;4.660;2024-02-14T07:19:21;11.98;86.95
83102;SHT31;72973;51.784;4.660;2024-02-14T07:21:47;12.04;86.63
83102;SHT31;72973;51.784;4.660;2024-02-14T07:24:14;12.11;86.52
83102;SHT31;72973;51.784;4.660;2024-02-14T07:26:40;12.07;86.30
83102;SHT31;72973;51.784;4.660;2024-02-14T07:29:07;12.03;86.29
83102;SHT31;72973;51.784;4.660;2024-02-14T07:31:34;12.04;86.24
83102;SHT31;72973;51.784;4.660;2024-02-14T07:34:00;12.05;86.32
83102;SHT31;72973;51.784;4.660;2024-02-14T07:36:29;12.07;86.42
83102;SHT31;72973;51.784;4.660;2024-02-14T07:38:56;12.13;86.17
83102;SHT31;72973;51.784;4.660;2024-02-14T07:41:23;12.07;86.30
83102;SHT31;72973;51.784;4.660;2024-02-14T07:43:49;12.13;86.32
83102;SHT31;72973;51.784;4.660;2024-02-14T07:46:18;12.10;86.19
83102;SHT31;72973;51.784;4.660;2024-02-14T07:48:44;12.07;86.27
83102;SHT31;72973;51.784;4.660;2024-02-14T07:51:11;12.11;86.43
83102;SHT31;72973;51.784;4.660;2024-02-14T07:53:38;12.05;86.52
83102;SHT31;72973;51.784;4.660;2024-02-14T07:56:05;12.11;86.34
83102;SHT31;72973;51.784;4.660;2024-02-14T07:58:31;12.11;86.27
83102;SHT31;72973;51.784;4.660;2024-02-14T08:00:58;12.05;86.44
83102;SHT31;72973;51.784;4.660;2024-02-14T08:03:25;12.08;86.44
83102;SHT31;72973;51.784;4.660;2024-02-14T08:05:51;12.04;86.28
83102;SHT31;72973;51.784;4.660;2024-02-14T08:08:19;11.98;86.77
83102;SHT31;72973;51.784;4.660;2024-02-14T08:10:47;12.05;86.64
83102;SHT31;72973;51.784;4.660;2024-02-14T08:13:14;12.07;86.44
83102;SHT31;72973;51.784;4.660;2024-02-14T08:15:42;12.03;86.56
83102;SHT31;72973;51.784;4.660;2024-02-14T08:18:08;12.07;86.41
83102;SHT31;72973;51.784;4.660;2024-02-14T08:20:35;12.14;86.51
83102;SHT31;72973;51.784;4.660;2024-02-14T08:23:01;12.08;86.42
83102;SHT31;72973;51.784;4.660;2024-02-14T08:25:28;12.13;86.51
83102;SHT31;72973;51.784;4.660;2024-02-14T08:27:56;12.08;86.48
83102;SHT31;72973;51.784;4.660;2024-02-14T08:30:22;12.03;86.62
83102;SHT31;72973;51.784;4.660;2024-02-14T08:32:49;12.07;86.75
83102;SHT31;72973;51.784;4.660;2024-02-14T08:35:15;12.16;86.54
83102;SHT31;72973;51.784;4.660;2024-02-14T08:37:42;12.18;86.25
83102;SHT31;72973;51.784;4.660;2024-02-14T08:40:08;12.34;85.89
83102;SHT31;72973;51.784;4.660;2024-02-14T08:42:35;12.35;85.69
83102;SHT31;72973;51.784;4.660;2024-02-14T08:45:03;12.41;85.68
83102;SHT31;72973;51.784;4.660;2024-02-14T08:47:30;12.46;85.74
83102;SHT31;72973;51.784;4.660;2024-02-14T08:49:56;12.51;85.73
83102;SHT31;72973;51.784;4.660;2024-02-14T08:52:23;12.51;85.80
83102;SHT31;72973;51.784;4.660;2024-02-14T08:54:49;12.51;85.61
83102;SHT31;72973;51.784;4.660;2024-02-14T08:57:15;12.56;85.56
83102;SHT31;72973;51.784;4.660;2024-02-14T08:59:42;12.53;85.27
83102;SHT31;72973;51.784;4.660;2024-02-14T09:02:10;12.52;85.56
83102;SHT31;72973;51.784;4.660;2024-02-14T09:04:36;12.48;86.00
83102;SHT31;72973;51.784;4.660;2024-02-14T09:07:03;12.46;86.01
83102;SHT31;72973;51.784;4.660;2024-02-14T09:09:30;12.48;86.21
83102;SHT31;72973;51.784;4.660;2024-02-14T09:11:57;12.58;85.87
83102;SHT31;72973;51.784;4.660;2024-02-14T09:14:23;12.52;85.86
83102;SHT31;72973;51.784;4.660;2024-02-14T09:16:50;12.58;85.93
83102;SHT31;72973;51.784;4.660;2024-02-14T09:19:16;12.65;85.89
83102;SHT31;72973;51.784;4.660;2024-02-14T09:21:43;12.59;85.77
83102;SHT31;72973;51.784;4.660;2024-02-14T09:24:09;12.59;86.08
83102;SHT31;72973;51.784;4.660;2024-02-14T09:26:36;12.62;85.89
83102;SHT31;72973;51.784;4.660;2024-02-14T09:29:04;12.65;85.74
83102;SHT31;72973;51.784;4.660;2024-02-14T09:31:31;12.63;85.62
83102;SHT31;72973;51.784;4.660;2024-02-14T09:33:57;12.66;85.66
83102;SHT31;72973;51.784;4.660;2024-02-14T09:36:25;12.65;85.93
83102;SHT31;72973;51.784;4.660;2024-02-14T09:38:51;12.66;85.93
83102;SHT31;72973;51.784;4.660;2024-02-14T09:41:36;12.75;85.87
83102;SHT31;72973;51.784;4.660;2024-02-14T09:44:03;12.70;85.75
83102;SHT31;72973;51.784;4.660;2024-02-14T09:46:30;12.80;85.76
83102;SHT31;72973;51.784;4.660;2024-02-14T09:48:59;12.86;85.42
83102;SHT31;72973;51.784;4.660;2024-02-14T09:51:25;12.90;85.59
83102;SHT31;72973;51.784;4.660;2024-02-14T09:53:54;12.96;85.33
83102;SHT31;72973;51.784;4.660;2024-02-14T09:56:22;12.89;85.67
83102;SHT31;72973;51.784;4.660;2024-02-14T09:58:51;12.92;85.79
83102;SHT31;72973;51.784;4.660;2024-02-14T10:01:23;12.95;85.71
83102;SHT31;72973;51.784;4.660;2024-02-14T10:03:51;12.92;85.73
83102;SHT31;72973;51.784;4.660;2024-02-14T10:06:18;12.93;85.90
83102;SHT31;72973;51.784;4.660;2024-02-14T10:08:48;12.89;86.26
83102;SHT31;72973;51.784;4.660;2024-02-14T10:11:14;12.93;86.16
83102;SHT31;72973;51.784;4.660;2024-02-14T10:13:44;12.93;86.14
83102;SHT31;72973;51.784;4.660;2024-02-14T10:16:12;12.92;86.22
83102;SHT31;72973;51.784;4.660;2024-02-14T10:18:39;12.90;86.43
83102;SHT31;72973;51.784;4.660;2024-02-14T10:21:05;12.88;86.36
83102;SHT31;72973;51.784;4.660;2024-02-14T10:23:32;12.93;86.41
83102;SHT31;72973;51.784;4.660;2024-02-14T10:25:58;12.86;86.51
83102;SHT31;72973;51.784;4.660;2024-02-14T10:28:25;12.95;86.52
83102;SHT31;72973;51.784;4.660;2024-02-14T10:30:54;12.93;86.50
83102;SHT31;72973;51.784;4.660;2024-02-14T10:33:20;12.99;86.46
83102;SHT31;72973;51.784;4.660;2024-02-14T10:35:49;12.97;86.40
83102;SHT31;72973;51.784;4.660;2024-02-14T10:38:17;13.07;86.48
83102;SHT31;72973;51.784;4.660;2024-02-14T10:40:47;13.09;86.18
83102;SHT31;72973;51.784;4.660;2024-02-14T10:43:13;13.16;85.85
83102;SHT31;72973;51.784;4.660;2024-02-14T10:45:40;13.14;85.84
83102;SHT31;72973;51.784;4.660;2024-02-14T10:48:11;13.23;85.99
83102;SHT31;72973;51.784;4.660;2024-02-14T10:50:41;13.30;85.50
83102;SHT31;72973;51.784;4.660;2024-02-14T10:53:13;13.27;85.76
83102;SHT31;72973;51.784;4.660;2024-02-14T10:55:40;13.34;85.56
83102;SHT31;72973;51.784;4.660;2024-02-14T10:58:10;13.34;85.44
83102;SHT31;72973;51.784;4.660;2024-02-14T11:00:38;13.37;85.55
83102;SHT31;72973;51.784;4.660;2024-02-14T11:03:05;13.34;85.30
83102;SHT31;72973;51.784;4.660;2024-02-14T11:05:43;13.33;85.62
83102;SHT31;72973;51.784;4.660;2024-02-14T11:08:20;13.28;85.79
83102;SHT31;72973;51.784;4.660;2024-02-14T11:10:54;13.33;86.01
83102;SHT31;72973;51.784;4.660;2024-02-14T11:13:21;13.28;86.01
83102;SHT31;72973;51.784;4.660;2024-02-14T11:15:51;13.33;86.26
83102;SHT31;72973;51.784;4.660;2024-02-14T11:18:28;13.44;85.94
83102;SHT31;72973;51.784;4.660;2024-02-14T11:21:03;13.44;85.46
83102;SHT31;72973;51.784;4.660;2024-02-14T11:23:31;13.45;85.71
83102;SHT31;72973;51.784;4.660;2024-02-14T11:26:01;13.45;85.54
83102;SHT31;72973;51.784;4.660;2024-02-14T11:28:29;13.37;85.99
83102;SHT31;72973;51.784;4.660;2024-02-14T11:31:02;13.36;85.90
83102;SHT31;72973;51.784;4.660;2024-02-14T11:33:30;13.43;86.23
83102;SHT31;72973;51.784;4.660;2024-02-14T11:35:56;13.36;86.27
83102;SHT31;72973;51.784;4.660;2024-02-14T11:38:25;13.43;86.42
83102;SHT31;72973;51.784;4.660;2024-02-14T11:40:56;13.37;86.31
83102;SHT31;72973;51.784;4.660;2024-02-14T11:43:23;13.44;86.38
83102;SHT31;72973;51.784;4.660;2024-02-14T11:45:50;13.47;86.32
83102;SHT31;72973;51.784;4.660;2024-02-14T11:48:21;13.43;86.28
83102;SHT31;72973;51.784;4.660;2024-02-14T11:50:47;13.41;86.21
83102;SHT31;72973;51.784;4.660;2024-02-14T11:53:15;13.44;86.04
83102;SHT31;72973;51.784;4.660;2024-02-14T11:55:45;13.37;86.28
83102;SHT31;72973;51.784;4.660;2024-02-14T11:58:15;13.38;86.57
83102;SHT31;72973;51.784;4.660;2024-02-14T12:00:46;13.36;86.66
83102;SHT31;72973;51.784;4.660;2024-02-14T12:03:17;13.45;86.79
83102;SHT31;72973;51.784;4.660;2024-02-14T12:05:46;13.44;86.56
83102;SHT31;72973;51.784;4.660;2024-02-14T12:08:15;13.50;86.65
83102;SHT31;72973;51.784;4.660;2024-02-14T12:10:45;13.54;86.79
83102;SHT31;72973;51.784;4.660;2024-02-14T12:13:21;13.45;86.61
83102;SHT31;72973;51.784;4.660;2024-02-14T12:15:49;13.38;86.56
83102;SHT31;72973;51.784;4.660;2024-02-14T12:20:16;13.33;86.83
83102;SHT31;72973;51.784;4.660;2024-02-14T12:22:43;13.43;87.06
83102;SHT31;72973;51.784;4.660;2024-02-14T12:25:10;13.48;86.72
83102;SHT31;72973;51.784;4.660;2024-02-14T12:27:37;13.45;86.61
83102;SHT31;72973;51.784;4.660;2024-02-14T12:32:32;13.16;88.09
83102;SHT31;72973;51.784;4.660;2024-02-14T12:34:59;13.16;87.87
83102;SHT31;72973;51.784;4.660;2024-02-14T12:37:28;13.34;87.49
83102;SHT31;72973;51.784;4.660;2024-02-14T12:39:55;13.40;87.38
83102;SHT31;72973;51.784;4.660;2024-02-14T12:42:23;13.43;87.22
83102;SHT31;72973;51.784;4.660;2024-02-14T12:44:59;13.58;86.99
83102;SHT31;72973;51.784;4.660;2024-02-14T12:47:26;13.62;86.40
83102;SHT31;72973;51.784;4.660;2024-02-14T12:49:58;13.59;86.42
83102;SHT31;72973;51.784;4.660;2024-02-14T12:52:31;13.59;86.57
83102;SHT31;72973;51.784;4.660;2024-02-14T12:54:58;13.62;86.13
83102;SHT31;72973;51.784;4.660;2024-02-14T12:57:24;13.58;86.35
83102;SHT31;72973;51.784;4.660;2024-02-14T12:59:51;13.61;86.23
83102;SHT31;72973;51.784;4.660;2024-02-14T13:02:17;13.57;86.39
83102;SHT31;72973;51.784;4.660;2024-02-14T13:04:44;13.71;86.25
83102;SHT31;72973;51.784;4.660;2024-02-14T13:08:58;13.66;86.19
83102;SHT31;72973;51.784;4.660;2024-02-14T13:11:27;13.71;86.08
83102;SHT31;72973;51.784;4.660;2024-02-14T13:13:54;13.72;86.22
83102;SHT31;72973;51.784;4.660;2024-02-14T13:16:24;13.74;86.16
83102;SHT31;72973;51.784;4.660;2024-02-14T13:18:53;13.79;86.08
83102;SHT31;72973;51.784;4.660;2024-02-14T13:21:20;13.86;85.84
83102;SHT31;72973;51.784;4.660;2024-02-14T13:23:46;13.82;85.84
83102;SHT31;72973;51.784;4.660;2024-02-14T13:26:14;13.81;86.18
83102;SHT31;72973;51.784;4.660;2024-02-14T13:29:02;13.82;86.19
83102;SHT31;72973;51.784;4.660;2024-02-14T13:41:12;12.80;90.45
83102;SHT31;72973;51.784;4.660;2024-02-14T13:43:46;13.07;89.62
83102;SHT31;72973;51.784;4.660;2024-02-14T13:46:15;13.27;88.80
83102;SHT31;72973;51.784;4.660;2024-02-14T13:48:44;13.48;88.20
83102;SHT31;72973;51.784;4.660;2024-02-14T13:53:28;13.55;87.47
83102;SHT31;72973;51.784;4.660;2024-02-14T13:55:57;13.59;87.19
83102;SHT31;72973;51.784;4.660;2024-02-14T13:58:36;13.74;86.91
83102;SHT31;72973;51.784;4.660;2024-02-14T14:01:07;13.75;86.74
83102;SHT31;72973;51.784;4.660;2024-02-14T14:03:34;13.78;86.75
83102;SHT31;72973;51.784;4.660;2024-02-14T14:06:03;13.79;86.42
83102;SHT31;72973;51.784;4.660;2024-02-14T14:08:32;13.82;86.48
83102;SHT31;72973;51.784;4.660;2024-02-14T14:11:42;13.69;86.96
83102;SHT31;72973;51.784;4.660;2024-02-14T14:14:13;13.68;86.98
83102;SHT31;72973;51.784;4.660;2024-02-14T14:19:58;13.40;88.58
83102;SHT31;72973;51.784;4.660;2024-02-14T14:22:26;13.50;88.04
83102;SHT31;72973;51.784;4.660;2024-02-14T14:24:59;13.58;88.01
83102;SHT31;72973;51.784;4.660;2024-02-14T14:27:26;13.65;87.84
83102;SHT31;72973;51.784;4.660;2024-02-14T14:29:59;13.69;87.65
83102;SHT31;72973;51.784;4.660;2024-02-14T14:32:27;13.72;87.80
83102;SHT31;72973;51.784;4.660;2024-02-14T14:35:09;13.82;87.51
83102;SHT31;72973;51.784;4.660;2024-02-14T14:37:38;13.74;87.54
83102;SHT31;72973;51.784;4.660;2024-02-14T14:40:05;13.75;87.73
83102;SHT31;72973;51.784;4.660;2024-02-14T14:42:34;13.75;87.43
83102;SHT31;72973;51.784;4.660;2024-02-14T14:45:01;13.74;87.47
83102;SHT31;72973;51.784;4.660;2024-02-14T14:47:29;13.76;87.58
83102;SHT31;72973;51.784;4.660;2024-02-14T14:49:56;13.72;87.59
83102;SHT31;72973;51.784;4.660;2024-02-14T14:52:22;13.75;87.43
83102;SHT31;72973;51.784;4.660;2024-02-14T14:54:48;13.74;87.54
83102;SHT31;72973;51.784;4.660;2024-02-14T14:57:15;13.71;87.50
83102;SHT31;72973;51.784;4.660;2024-02-14T14:59:41;13.66;87.56
83102;SHT31;72973;51.784;4.660;2024-02-14T15:02:09;13.72;87.58
83102;SHT31;72973;51.784;4.660;2024-02-14T15:04:36;13.72;87.44
83102;SHT31;72973;51.784;4.660;2024-02-14T15:07:03;13.71;87.41
83102;SHT31;72973;51.784;4.660;2024-02-14T15:09:30;13.79;87.30
83102;SHT31;72973;51.784;4.660;2024-02-14T15:11:56;13.79;87.33
83102;SHT31;72973;51.784;4.660;2024-02-14T15:14:23;13.79;87.43
83102;SHT31;72973;51.784;4.660;2024-02-14T15:16:50;13.83;87.43
83102;SHT31;72973;51.784;4.660;2024-02-14T15:19:24;13.81;87.51
83102;SHT31;72973;51.784;4.660;2024-02-14T15:21:53;13.83;87.39
83102;SHT31;72973;51.784;4.660;2024-02-14T15:24:20;13.85;87.32
83102;SHT31;72973;51.784;4.660;2024-02-14T15:26:46;13.83;87.35
83102;SHT31;72973;51.784;4.660;2024-02-14T15:29:17;13.78;87.30
83102;SHT31;72973;51.784;4.660;2024-02-14T15:32:02;13.79;87.30
83102;SHT31;72973;51.784;4.660;2024-02-14T15:34:48;13.81;87.22
83102;SHT31;72973;51.784;4.660;2024-02-14T15:37:15;13.79;87.24
83102;SHT31;72973;51.784;4.660;2024-02-14T15:39:43;13.76;87.36
83102;SHT31;72973;51.784;4.660;2024-02-14T15:42:10;13.78;87.53
83102;SHT31;72973;51.784;4.660;2024-02-14T15:44:37;13.81;87.23
83102;SHT31;72973;51.784;4.660;2024-02-14T15:47:04;13.86;87.11
83102;SHT31;72973;51.784;4.660;2024-02-14T15:49:30;13.82;87.15
83102;SHT31;72973;51.784;4.660;2024-02-14T15:51:56;13.83;87.31
83102;SHT31;72973;51.784;4.660;2024-02-14T15:54:23;13.89;86.98